sensor_id;sensor_type;location;lat;lon;timestamp;temperature;humidity
24152;DHT22;12311;50.866;4.332;2022-11-18T00:00:55;10.30;99.90
24152;DHT22;12311;50.866;4.332;2022-11-18T00:03:21;10.30;99.90
24152;DHT22;12311;50.866;4.332;2022-11-18T00:05:57;10.20;99.90
24152;DHT22;12311;50.866;4.332;2022-11-18T00:08:23;10.20;99.90
24152;DHT22;12311;50.866;4.332;2022-11-18T00:10:49;10.20;99.90
24152;DHT22;12311;50.866;4.332;2022-11-18T00:13:16;10.10;99.90
24152;DHT22;12311;50.866;4.332;2022-11-18T00:16:05;10.20;99.90
24152;DHT22;12311;50.866;4.332;2022-11-18T00:18:31;10.20;99.90
24152;DHT22;12311;50.866;4.332;2022-11-18T00:21:15;10.20;99.90
24152;DHT22;12311;50.866;4.332;2022-11-18T00:23:41;10.20;99.90
24152;DHT22;12311;50.866;4.332;2022-11-18T00:26:13;10.20;99.90
24152;DHT22;12311;50.866;4.332;2022-11-18T00:28:40;10.30;99.90
24152;DHT22;12311;50.866;4.332;2022-11-18T00:31:11;10.30;99.90
24152;DHT22;12311;50.866;4.332;2022-11-18T00:33:38;10.30;99.90
24152;DHT22;12311;50.866;4.332;2022-11-18T00:36:06;10.30;99.90
24152;DHT22;12311;50.866;4.332;2022-11-18T00:38:32;10.30;99.90
24152;DHT22;12311;50.866;4.332;2022-11-18T00:41:02;10.30;99.90
24152;DHT22;12311;50.866;4.332;2022-11-18T00:43:29;10.30;99.90
24152;DHT22;12311;50.866;4.332;2022-11-18T00:45:55;10.30;99.90
24152;DHT22;12311;50.866;4.332;2022-11-18T00:48:21;10.30;99.90
24152;DHT22;12311;50.866;4.332;2022-11-18T00:50:51;10.40;99.90
24152;DHT22;12311;50.866;4.332;2022-11-18T00:53:18;10.40;99.90
24152;DHT22;12311;50.866;4.332;2022-11-18T00:55:44;10.40;99.90
24152;DHT22;12311;50.866;4.332;2022-11-18T00:58:10;10.40;99.90
24152;DHT22;12311;50.866;4.332;2022-11-18T01:00:43;10.30;99.90
24152;DHT22;12311;50.866;4.332;2022-11-18T01:03:10;10.30;99.90
24152;DHT22;12311;50.866;4.332;2022-11-18T01:05:36;10.20;99.90
24152;DHT22;12311;50.866;4.332;2022-11-18T01:08:02;10.20;99.90
24152;DHT22;12311;50.866;4.332;2022-11-18T01:10:28;10.20;99.90
24152;DHT22;12311;50.866;4.332;2022-11-18T01:12:54;10.20;99.90
24152;DHT22;12311;50.866;4.332;2022-11-18T01:15:42;10.20;99.90
24152;DHT22;12311;50.866;4.332;2022-11-18T01:18:09;10.20;99.90
24152;DHT22;12311;50.866;4.332;2022-11-18T01:20:35;10.20;99.90
24152;DHT22;12311;50.866;4.332;2022-11-18T01:23:01;10.10;99.90
24152;DHT22;12311;50.866;4.332;2022-11-18T01:25:28;10.00;99.90
24152;DHT22;12311;50.866;4.332;2022-11-18T01:27:54;10.00;99.90
24152;DHT22;12311;50.866;4.332;2022-11-18T01:30:20;10.00;99.90
24152;DHT22;12311;50.866;4.332;2022-11-18T01:32:46;10.00;99.90
24152;DHT22;12311;50.866;4.332;2022-11-18T01:35:11;10.00;99.90
24152;DHT22;12311;50.866;4.332;2022-11-18T01:37:37;9.90;99.90
24152;DHT22;12311;50.866;4.332;2022-11-18T01:40:05;9.90;99.90
24152;DHT22;12311;50.866;4.332;2022-11-18T01:42:31;9.90;99.90
24152;DHT22;12311;50.866;4.332;2022-11-18T01:44:58;9.80;99.90
24152;DHT22;12311;50.866;4.332;2022-11-18T01:47:32;9.80;99.90
24152;DHT22;12311;50.866;4.332;2022-11-18T01:49:59;9.80;99.90
24152;DHT22;12311;50.866;4.332;2022-11-18T01:52:26;9.80;99.90
24152;DHT22;12311;50.866;4.332;2022-11-18T01:54:56;9.80;99.90
24152;DHT22;12311;50.866;4.332;2022-11-18T01:57:23;9.70;99.90
24152;DHT22;12311;50.866;4.332;2022-11-18T01:59:55;9.70;99.90
24152;DHT22;12311;50.866;4.332;2022-11-18T02:02:22;9.70;99.90
24152;DHT22;12311;50.866;4.332;2022-11-18T02:04:49;9.70;99.90
24152;DHT22;12311;50.866;4.332;2022-11-18T02:07:16;9.70;99.90
24152;DHT22;12311;50.866;4.332;2022-11-18T02:09:43;9.60;99.90
24152;DHT22;12311;50.866;4.332;2022-11-18T02:12:09;9.60;99.90
24152;DHT22;12311;50.866;4.332;2022-11-18T02:14:37;9.50;99.90
24152;DHT22;12311;50.866;4.332;2022-11-18T02:25:27;9.60;99.90
24152;DHT22;12311;50.866;4.332;2022-11-18T02:30:56;9.60;99.90
24152;DHT22;12311;50.866;4.332;2022-11-18T02:33:38;9.60;99.90
24152;DHT22;12311;50.866;4.332;2022-11-18T02:39:03;9.60;99.90
24152;DHT22;12311;50.866;4.332;2022-11-18T02:41:30;9.40;99.90
24152;DHT22;12311;50.866;4.332;2022-11-18T02:44:06;9.50;99.90
24152;DHT22;12311;50.866;4.332;2022-11-18T02:46:35;9.40;99.90
24152;DHT22;12311;50.866;4.332;2022-11-18T02:49:07;9.40;99.90
24152;DHT22;12311;50.866;4.332;2022-11-18T02:51:34;9.30;99.90
24152;DHT22;12311;50.866;4.332;2022-11-18T02:54:05;9.40;99.90
24152;DHT22;12311;50.866;4.332;2022-11-18T02:56:33;9.30;99.90
24152;DHT22;12311;50.866;4.332;2022-11-18T02:58:59;9.30;99.90
24152;DHT22;12311;50.866;4.332;2022-11-18T03:01:28;9.30;99.90
24152;DHT22;12311;50.866;4.332;2022-11-18T03:03:54;9.30;99.90
24152;DHT22;12311;50.866;4.332;2022-11-18T03:06:40;9.30;99.90
24152;DHT22;12311;50.866;4.332;2022-11-18T03:09:11;9.30;99.90
24152;DHT22;12311;50.866;4.332;2022-11-18T03:17:29;9.10;99.90
24152;DHT22;12311;50.866;4.332;2022-11-18T03:22:33;9.00;99.90
24152;DHT22;12311;50.866;4.332;2022-11-18T03:25:11;9.00;99.90
24152;DHT22;12311;50.866;4.332;2022-11-18T03:28:18;9.00;99.90
24152;DHT22;12311;50.866;4.332;2022-11-18T03:30:39;9.00;99.90
24152;DHT22;12311;50.866;4.332;2022-11-18T03:33:09;8.90;99.90
24152;DHT22;12311;50.866;4.332;2022-11-18T03:35:40;8.90;99.90
24152;DHT22;12311;50.866;4.332;2022-11-18T03:38:12;8.90;99.90
24152;DHT22;12311;50.866;4.332;2022-11-18T03:40:40;8.90;99.90
24152;DHT22;12311;50.866;4.332;2022-11-18T03:43:13;8.90;99.90
24152;DHT22;12311;50.866;4.332;2022-11-18T03:48:18;8.90;99.90
24152;DHT22;12311;50.866;4.332;2022-11-18T03:50:51;8.90;99.90
24152;DHT22;12311;50.866;4.332;2022-11-18T03:53:20;8.90;99.90
24152;DHT22;12311;50.866;4.332;2022-11-18T03:55:49;8.90;99.90
24152;DHT22;12311;50.866;4.332;2022-11-18T03:58:22;8.90;99.90
24152;DHT22;12311;50.866;4.332;2022-11-18T04:00:54;8.80;99.90
24152;DHT22;12311;50.866;4.332;2022-11-18T04:03:22;8.80;99.90
24152;DHT22;12311;50.866;4.332;2022-11-18T04:05:54;8.80;99.90
24152;DHT22;12311;50.866;4.332;2022-11-18T04:08:25;8.70;99.90
24152;DHT22;12311;50.866;4.332;2022-11-18T04:11:23;8.80;99.90
24152;DHT22;12311;50.866;4.332;2022-11-18T04:14:34;8.80;99.90
24152;DHT22;12311;50.866;4.332;2022-11-18T04:17:08;8.80;99.90
24152;DHT22;12311;50.866;4.332;2022-11-18T04:19:34;8.80;99.90
24152;DHT22;12311;50.866;4.332;2022-11-18T04:22:00;8.70;99.90
24152;DHT22;12311;50.866;4.332;2022-11-18T04:24:26;8.70;99.90
24152;DHT22;12311;50.866;4.332;2022-11-18T04:26:52;8.70;99.90
24152;DHT22;12311;50.866;4.332;2022-11-18T04:29:17;8.70;99.90
24152;DHT22;12311;50.866;4.332;2022-11-18T04:31:43;8.70;99.90
24152;DHT22;12311;50.866;4.332;2022-11-18T04:34:09;8.70;99.90
24152;DHT22;12311;50.866;4.332;2022-11-18T04:36:34;8.70;99.90
24152;DHT22;12311;50.866;4.332;2022-11-18T04:39:00;8.60;99.90
24152;DHT22;12311;50.866;4.332;2022-11-18T04:41:25;8.60;99.90
24152;DHT22;12311;50.866;4.332;2022-11-18T04:44:11;8.60;99.90
24152;DHT22;12311;50.866;4.332;2022-11-18T04:46:41;8.60;99.90
24152;DHT22;12311;50.866;4.332;2022-11-18T04:49:12;8.50;99.90
24152;DHT22;12311;50.866;4.332;2022-11-18T04:51:42;8.60;99.90
24152;DHT22;12311;50.866;4.332;2022-11-18T04:54:08;8.60;99.90
24152;DHT22;12311;50.866;4.332;2022-11-18T04:56:34;8.50;99.90
24152;DHT22;12311;50.866;4.332;2022-11-18T04:59:01;8.60;99.90
24152;DHT22;12311;50.866;4.332;2022-11-18T05:01:28;8.50;99.90
24152;DHT22;12311;50.866;4.332;2022-11-18T05:03:54;8.60;99.90
24152;DHT22;12311;50.866;4.332;2022-11-18T05:06:20;8.50;99.90
24152;DHT22;12311;50.866;4.332;2022-11-18T05:08:46;8.50;99.90
24152;DHT22;12311;50.866;4.332;2022-11-18T05:11:12;8.60;99.90
24152;DHT22;12311;50.866;4.332;2022-11-18T05:13:56;8.50;99.90
24152;DHT22;12311;50.866;4.332;2022-11-18T05:16:21;8.40;99.90
24152;DHT22;12311;50.866;4.332;2022-11-18T05:18:47;8.50;99.90
24152;DHT22;12311;50.866;4.332;2022-11-18T05:21:13;8.50;99.90
24152;DHT22;12311;50.866;4.332;2022-11-18T05:23:38;8.40;99.90
24152;DHT22;12311;50.866;4.332;2022-11-18T05:26:08;8.50;99.90
24152;DHT22;12311;50.866;4.332;2022-11-18T05:28:35;8.50;99.90
24152;DHT22;12311;50.866;4.332;2022-11-18T05:31:14;8.40;99.90
24152;DHT22;12311;50.866;4.332;2022-11-18T05:33:40;8.40;99.90
24152;DHT22;12311;50.866;4.332;2022-11-18T05:36:09;8.40;99.90
24152;DHT22;12311;50.866;4.332;2022-11-18T05:38:35;8.40;99.90
24152;DHT22;12311;50.866;4.332;2022-11-18T05:41:01;8.30;99.90
24152;DHT22;12311;50.866;4.332;2022-11-18T05:43:28;8.30;99.90
24152;DHT22;12311;50.866;4.332;2022-11-18T05:45:54;8.30;99.90
24152;DHT22;12311;50.866;4.332;2022-11-18T05:48:20;8.40;99.90
24152;DHT22;12311;50.866;4.332;2022-11-18T05:50:47;8.30;99.90
24152;DHT22;12311;50.866;4.332;2022-11-18T05:53:14;8.40;99.90
24152;DHT22;12311;50.866;4.332;2022-11-18T05:58:41;8.30;99.90
24152;DHT22;12311;50.866;4.332;2022-11-18T06:01:07;8.30;99.90
24152;DHT22;12311;50.866;4.332;2022-11-18T06:03:37;8.30;99.90
24152;DHT22;12311;50.866;4.332;2022-11-18T06:06:04;8.30;99.90
24152;DHT22;12311;50.866;4.332;2022-11-18T06:08:44;8.30;99.90
24152;DHT22;12311;50.866;4.332;2022-11-18T06:11:13;8.30;99.90
24152;DHT22;12311;50.866;4.332;2022-11-18T06:13:47;8.40;99.90
24152;DHT22;12311;50.866;4.332;2022-11-18T06:16:17;8.30;99.90
24152;DHT22;12311;50.866;4.332;2022-11-18T06:18:44;8.30;99.90
24152;DHT22;12311;50.866;4.332;2022-11-18T06:21:10;8.30;99.90
24152;DHT22;12311;50.866;4.332;2022-11-18T06:23:36;8.30;99.90
24152;DHT22;12311;50.866;4.332;2022-11-18T06:26:03;8.30;99.90
24152;DHT22;12311;50.866;4.332;2022-11-18T06:28:30;8.30;99.90
24152;DHT22;12311;50.866;4.332;2022-11-18T06:30:55;8.30;99.90
24152;DHT22;12311;50.866;4.332;2022-11-18T06:33:21;8.40;99.90
24152;DHT22;12311;50.866;4.332;2022-11-18T06:35:46;8.40;99.90
24152;DHT22;12311;50.866;4.332;2022-11-18T06:38:12;8.40;99.90
24152;DHT22;12311;50.866;4.332;2022-11-18T06:40:38;8.40;99.90
24152;DHT22;12311;50.866;4.332;2022-11-18T06:43:05;8.50;99.90
24152;DHT22;12311;50.866;4.332;2022-11-18T06:45:50;8.40;99.90
24152;DHT22;12311;50.866;4.332;2022-11-18T06:48:34;8.50;99.90
24152;DHT22;12311;50.866;4.332;2022-11-18T06:50:59;8.50;99.90
24152;DHT22;12311;50.866;4.332;2022-11-18T06:53:28;8.40;99.90
24152;DHT22;12311;50.866;4.332;2022-11-18T06:55:54;8.40;99.90
24152;DHT22;12311;50.866;4.332;2022-11-18T06:58:19;8.40;99.90
24152;DHT22;12311;50.866;4.332;2022-11-18T07:00:45;8.40;99.90
24152;DHT22;12311;50.866;4.332;2022-11-18T07:03:11;8.50;99.90
24152;DHT22;12311;50.866;4.332;2022-11-18T07:05:36;8.50;99.90
24152;DHT22;12311;50.866;4.332;2022-11-18T07:08:02;8.50;99.90
24152;DHT22;12311;50.866;4.332;2022-11-18T07:10:28;8.60;99.90
24152;DHT22;12311;50.866;4.332;2022-11-18T07:12:54;8.60;99.90
24152;DHT22;12311;50.866;4.332;2022-11-18T07:15:19;8.60;99.90
24152;DHT22;12311;50.866;4.332;2022-11-18T07:17:45;8.70;99.90
24152;DHT22;12311;50.866;4.332;2022-11-18T07:20:10;8.70;99.90
24152;DHT22;12311;50.866;4.332;2022-11-18T07:22:36;8.70;99.90
24152;DHT22;12311;50.866;4.332;2022-11-18T07:25:02;8.70;99.90
24152;DHT22;12311;50.866;4.332;2022-11-18T07:27:27;8.80;99.90
24152;DHT22;12311;50.866;4.332;2022-11-18T07:29:53;8.80;99.90
24152;DHT22;12311;50.866;4.332;2022-11-18T07:32:18;8.90;99.90
24152;DHT22;12311;50.866;4.332;2022-11-18T07:34:44;8.90;99.90
24152;DHT22;12311;50.866;4.332;2022-11-18T07:37:10;9.00;99.90
24152;DHT22;12311;50.866;4.332;2022-11-18T07:39:35;9.10;99.90
24152;DHT22;12311;50.866;4.332;2022-11-18T07:42:01;9.10;99.90
24152;DHT22;12311;50.866;4.332;2022-11-18T07:44:26;9.10;99.90
24152;DHT22;12311;50.866;4.332;2022-11-18T07:46:52;9.20;99.90
24152;DHT22;12311;50.866;4.332;2022-11-18T07:49:18;9.20;99.90
24152;DHT22;12311;50.866;4.332;2022-11-18T07:51:43;9.30;99.90
24152;DHT22;12311;50.866;4.332;2022-11-18T07:54:11;9.40;99.90
24152;DHT22;12311;50.866;4.332;2022-11-18T07:56:38;9.30;99.90
24152;DHT22;12311;50.866;4.332;2022-11-18T07:59:04;9.40;99.90
24152;DHT22;12311;50.866;4.332;2022-11-18T08:01:30;9.40;99.90
24152;DHT22;12311;50.866;4.332;2022-11-18T08:03:57;9.30;99.90
24152;DHT22;12311;50.866;4.332;2022-11-18T08:06:28;9.30;99.90
24152;DHT22;12311;50.866;4.332;2022-11-18T08:08:53;9.40;99.90
24152;DHT22;12311;50.866;4.332;2022-11-18T08:11:19;9.30;99.90
24152;DHT22;12311;50.866;4.332;2022-11-18T08:13:44;9.40;99.90
24152;DHT22;12311;50.866;4.332;2022-11-18T08:16:13;9.40;99.90
24152;DHT22;12311;50.866;4.332;2022-11-18T08:18:39;9.30;99.90
24152;DHT22;12311;50.866;4.332;2022-11-18T08:21:05;9.30;99.90
24152;DHT22;12311;50.866;4.332;2022-11-18T08:23:31;9.50;99.90
24152;DHT22;12311;50.866;4.332;2022-11-18T08:26:08;9.40;99.90
24152;DHT22;12311;50.866;4.332;2022-11-18T08:28:34;9.40;99.90
24152;DHT22;12311;50.866;4.332;2022-11-18T08:31:08;9.40;99.90
24152;DHT22;12311;50.866;4.332;2022-11-18T08:33:34;9.40;99.90
24152;DHT22;12311;50.866;4.332;2022-11-18T08:36:23;9.40;99.90
24152;DHT22;12311;50.866;4.332;2022-11-18T08:38:49;9.40;99.90
24152;DHT22;12311;50.866;4.332;2022-11-18T08:41:19;9.50;99.90
24152;DHT22;12311;50.866;4.332;2022-11-18T08:43:45;9.50;99.90
24152;DHT22;12311;50.866;4.332;2022-11-18T08:46:11;9.60;99.90
24152;DHT22;12311;50.866;4.332;2022-11-18T08:48:36;9.60;99.90
24152;DHT22;12311;50.866;4.332;2022-11-18T08:51:03;9.60;99.90
24152;DHT22;12311;50.866;4.332;2022-11-18T08:53:29;9.70;99.90
24152;DHT22;12311;50.866;4.332;2022-11-18T08:55:56;9.80;99.90
24152;DHT22;12311;50.866;4.332;2022-11-18T08:58:22;9.90;99.90
24152;DHT22;12311;50.866;4.332;2022-11-18T09:00:48;9.90;99.90
24152;DHT22;12311;50.866;4.332;2022-11-18T09:03:13;9.90;99.90
24152;DHT22;12311;50.866;4.332;2022-11-18T09:05:39;9.80;99.90
24152;DHT22;12311;50.866;4.332;2022-11-18T09:08:05;9.90;99.90
24152;DHT22;12311;50.866;4.332;2022-11-18T09:10:30;9.90;99.90
24152;DHT22;12311;50.866;4.332;2022-11-18T09:12:57;10.00;99.90
24152;DHT22;12311;50.866;4.332;2022-11-18T09:15:22;10.00;99.90
24152;DHT22;12311;50.866;4.332;2022-11-18T09:17:48;10.10;99.90
24152;DHT22;12311;50.866;4.332;2022-11-18T09:20:15;10.10;99.90
24152;DHT22;12311;50.866;4.332;2022-11-18T09:22:41;10.10;99.90
24152;DHT22;12311;50.866;4.332;2022-11-18T09:25:07;10.10;99.90
24152;DHT22;12311;50.866;4.332;2022-11-18T09:27:33;10.10;99.90
24152;DHT22;12311;50.866;4.332;2022-11-18T09:29:59;10.10;99.90
24152;DHT22;12311;50.866;4.332;2022-11-18T09:32:24;10.00;99.90
24152;DHT22;12311;50.866;4.332;2022-11-18T09:34:50;10.10;99.90
24152;DHT22;12311;50.866;4.332;2022-11-18T09:37:15;10.10;99.90
24152;DHT22;12311;50.866;4.332;2022-11-18T09:39:41;10.10;99.90
24152;DHT22;12311;50.866;4.332;2022-11-18T09:42:19;10.10;99.90
24152;DHT22;12311;50.866;4.332;2022-11-18T09:45:04;10.00;99.90
24152;DHT22;12311;50.866;4.332;2022-11-18T09:47:34;10.10;99.90
24152;DHT22;12311;50.866;4.332;2022-11-18T09:50:06;10.20;99.90
24152;DHT22;12311;50.866;4.332;2022-11-18T09:53:05;10.30;99.90
24152;DHT22;12311;50.866;4.332;2022-11-18T09:55:37;10.30;99.90
24152;DHT22;12311;50.866;4.332;2022-11-18T09:58:04;10.40;99.90
24152;DHT22;12311;50.866;4.332;2022-11-18T10:00:30;10.40;99.90
24152;DHT22;12311;50.866;4.332;2022-11-18T10:05:37;10.70;99.90
24152;DHT22;12311;50.866;4.332;2022-11-18T10:08:23;10.60;99.90
24152;DHT22;12311;50.866;4.332;2022-11-18T10:11:22;10.60;99.90
24152;DHT22;12311;50.866;4.332;2022-11-18T10:23:06;10.70;99.90
24152;DHT22;12311;50.866;4.332;2022-11-18T10:25:27;10.70;99.90
24152;DHT22;12311;50.866;4.332;2022-11-18T10:27:54;10.70;99.90
24152;DHT22;12311;50.866;4.332;2022-11-18T10:30:23;10.90;99.90
24152;DHT22;12311;50.866;4.332;2022-11-18T10:33:03;10.90;99.90
24152;DHT22;12311;50.866;4.332;2022-11-18T10:35:41;10.90;99.90
24152;DHT22;12311;50.866;4.332;2022-11-18T10:41:06;11.00;99.90
24152;DHT22;12311;50.866;4.332;2022-11-18T10:43:52;11.00;99.90
24152;DHT22;12311;50.866;4.332;2022-11-18T10:46:23;11.00;99.90
24152;DHT22;12311;50.866;4.332;2022-11-18T10:54:10;11.10;99.90
24152;DHT22;12311;50.866;4.332;2022-11-18T10:56:51;11.00;99.90
24152;DHT22;12311;50.866;4.332;2022-11-18T10:59:41;10.90;99.90
24152;DHT22;12311;50.866;4.332;2022-11-18T11:02:23;10.90;99.90
24152;DHT22;12311;50.866;4.332;2022-11-18T11:04:54;10.90;99.90
24152;DHT22;12311;50.866;4.332;2022-11-18T11:07:29;10.90;99.90
24152;DHT22;12311;50.866;4.332;2022-11-18T11:12:27;11.00;99.90
24152;DHT22;12311;50.866;4.332;2022-11-18T11:14:55;11.00;99.90
24152;DHT22;12311;50.866;4.332;2022-11-18T11:20:35;11.00;99.90
24152;DHT22;12311;50.866;4.332;2022-11-18T11:23:13;11.00;99.90
24152;DHT22;12311;50.866;4.332;2022-11-18T11:25:49;11.10;99.90
24152;DHT22;12311;50.866;4.332;2022-11-18T11:31:25;11.10;99.90
24152;DHT22;12311;50.866;4.332;2022-11-18T11:48:07;11.30;99.90
24152;DHT22;12311;50.866;4.332;2022-11-18T11:50:54;11.40;99.90
24152;DHT22;12311;50.866;4.332;2022-11-18T12:04:50;11.40;99.90
24152;DHT22;12311;50.866;4.332;2022-11-18T12:07:29;11.50;99.90
24152;DHT22;12311;50.866;4.332;2022-11-18T12:12:58;11.50;99.90
24152;DHT22;12311;50.866;4.332;2022-11-18T12:20:35;11.40;99.90
24152;DHT22;12311;50.866;4.332;2022-11-18T12:28:43;11.60;99.90
24152;DHT22;12311;50.866;4.332;2022-11-18T12:36:37;11.50;99.90
24152;DHT22;12311;50.866;4.332;2022-11-18T12:41:59;11.50;99.90
24152;DHT22;12311;50.866;4.332;2022-11-18T12:44:51;11.40;99.90
24152;DHT22;12311;50.866;4.332;2022-11-18T12:50:17;11.60;99.90
24152;DHT22;12311;50.866;4.332;2022-11-18T12:52:44;11.60;99.90
24152;DHT22;12311;50.866;4.332;2022-11-18T12:55:30;11.60;99.90
24152;DHT22;12311;50.866;4.332;2022-11-18T12:57:56;11.60;99.90
24152;DHT22;12311;50.866;4.332;2022-11-18T13:02:53;11.70;99.90
24152;DHT22;12311;50.866;4.332;2022-11-18T13:05:21;11.70;99.90
24152;DHT22;12311;50.866;4.332;2022-11-18T13:08:02;11.80;99.90
24152;DHT22;12311;50.866;4.332;2022-11-18T13:10:48;11.90;99.90
24152;DHT22;12311;50.866;4.332;2022-11-18T13:13:28;11.80;99.90
24152;DHT22;12311;50.866;4.332;2022-11-18T13:15:57;12.00;99.90
24152;DHT22;12311;50.866;4.332;2022-11-18T13:18:50;12.00;99.90
24152;DHT22;12311;50.866;4.332;2022-11-18T13:21:21;12.00;99.90
24152;DHT22;12311;50.866;4.332;2022-11-18T13:24:05;12.10;99.90
24152;DHT22;12311;50.866;4.332;2022-11-18T13:26:32;12.10;99.90
24152;DHT22;12311;50.866;4.332;2022-11-18T13:31:29;12.20;99.90
24152;DHT22;12311;50.866;4.332;2022-11-18T13:34:02;12.30;99.90
24152;DHT22;12311;50.866;4.332;2022-11-18T13:36:30;12.30;99.90
24152;DHT22;12311;50.866;4.332;2022-11-18T13:38:58;12.40;99.90
24152;DHT22;12311;50.866;4.332;2022-11-18T13:41:25;12.30;99.90
24152;DHT22;12311;50.866;4.332;2022-11-18T13:44:20;12.40;99.90
24152;DHT22;12311;50.866;4.332;2022-11-18T13:47:49;12.40;99.90
24152;DHT22;12311;50.866;4.332;2022-11-18T13:53:10;12.40;99.90
24152;DHT22;12311;50.866;4.332;2022-11-18T13:55:52;12.30;99.90
24152;DHT22;12311;50.866;4.332;2022-11-18T14:00:54;12.40;99.90
24152;DHT22;12311;50.866;4.332;2022-11-18T14:03:27;12.50;99.90
24152;DHT22;12311;50.866;4.332;2022-11-18T14:05:57;12.50;99.90
24152;DHT22;12311;50.866;4.332;2022-11-18T14:08:32;12.50;99.90
24152;DHT22;12311;50.866;4.332;2022-11-18T14:10:59;12.60;99.90
24152;DHT22;12311;50.866;4.332;2022-11-18T14:15:55;12.40;99.90
24152;DHT22;12311;50.866;4.332;2022-11-18T14:18:35;12.40;99.90
24152;DHT22;12311;50.866;4.332;2022-11-18T14:21:04;12.50;99.90
24152;DHT22;12311;50.866;4.332;2022-11-18T14:23:35;12.50;99.90
24152;DHT22;12311;50.866;4.332;2022-11-18T14:26:03;12.50;99.90
24152;DHT22;12311;50.866;4.332;2022-11-18T14:28:31;12.50;99.90
24152;DHT22;12311;50.866;4.332;2022-11-18T14:34:19;12.60;99.90
24152;DHT22;12311;50.866;4.332;2022-11-18T14:36:46;12.60;99.90
24152;DHT22;12311;50.866;4.332;2022-11-18T14:39:22;12.60;99.90
24152;DHT22;12311;50.866;4.332;2022-11-18T14:41:48;12.60;99.90
24152;DHT22;12311;50.866;4.332;2022-11-18T14:44:15;12.50;99.90
24152;DHT22;12311;50.866;4.332;2022-11-18T14:46:43;12.50;99.90
24152;DHT22;12311;50.866;4.332;2022-11-18T14:49:13;12.50;99.90
24152;DHT22;12311;50.866;4.332;2022-11-18T14:51:39;12.40;99.90
24152;DHT22;12311;50.866;4.332;2022-11-18T14:54:05;12.40;99.90
24152;DHT22;12311;50.866;4.332;2022-11-18T14:56:31;12.40;99.90
24152;DHT22;12311;50.866;4.332;2022-11-18T14:58:58;12.50;99.90
24152;DHT22;12311;50.866;4.332;2022-11-18T15:01:25;12.40;99.90
24152;DHT22;12311;50.866;4.332;2022-11-18T15:03:52;12.30;99.90
24152;DHT22;12311;50.866;4.332;2022-11-18T15:06:19;12.20;99.90
24152;DHT22;12311;50.866;4.332;2022-11-18T15:08:46;12.20;99.90
24152;DHT22;12311;50.866;4.332;2022-11-18T15:11:12;12.00;99.90
24152;DHT22;12311;50.866;4.332;2022-11-18T15:13:40;11.90;99.90
24152;DHT22;12311;50.866;4.332;2022-11-18T15:16:13;11.80;99.90
24152;DHT22;12311;50.866;4.332;2022-11-18T15:18:46;11.80;99.90
24152;DHT22;12311;50.866;4.332;2022-11-18T15:21:12;11.70;99.90
24152;DHT22;12311;50.866;4.332;2022-11-18T15:23:38;11.70;99.90
24152;DHT22;12311;50.866;4.332;2022-11-18T15:26:54;11.80;99.90
24152;DHT22;12311;50.866;4.332;2022-11-18T15:29:21;11.70;99.90
24152;DHT22;12311;50.866;4.332;2022-11-18T15:31:47;11.60;99.90
24152;DHT22;12311;50.866;4.332;2022-11-18T15:34:14;11.70;99.90
24152;DHT22;12311;50.866;4.332;2022-11-18T15:36:40;11.80;99.90
24152;DHT22;12311;50.866;4.332;2022-11-18T15:39:06;11.80;99.90
24152;DHT22;12311;50.866;4.332;2022-11-18T15:41:31;11.70;99.90
24152;DHT22;12311;50.866;4.332;2022-11-18T15:43:59;11.80;99.90
24152;DHT22;12311;50.866;4.332;2022-11-18T15:46:26;11.70;99.90
24152;DHT22;12311;50.866;4.332;2022-11-18T15:48:57;11.70;99.90
24152;DHT22;12311;50.866;4.332;2022-11-18T15:51:23;11.60;99.90
24152;DHT22;12311;50.866;4.332;2022-11-18T15:53:49;11.60;99.90
24152;DHT22;12311;50.866;4.332;2022-11-18T15:56:23;11.50;99.90
24152;DHT22;12311;50.866;4.332;2022-11-18T16:01:19;11.50;99.90
24152;DHT22;12311;50.866;4.332;2022-11-18T16:03:45;11.50;99.90
24152;DHT22;12311;50.866;4.332;2022-11-18T16:06:11;11.50;99.90
24152;DHT22;12311;50.866;4.332;2022-11-18T16:08:36;11.50;99.90
24152;DHT22;12311;50.866;4.332;2022-11-18T16:11:02;11.50;99.90
24152;DHT22;12311;50.866;4.332;2022-11-18T16:13:46;11.40;99.90
24152;DHT22;12311;50.866;4.332;2022-11-18T16:16:19;11.20;99.90
24152;DHT22;12311;50.866;4.332;2022-11-18T16:18:46;11.10;99.90
24152;DHT22;12311;50.866;4.332;2022-11-18T16:21:12;11.10;99.90
24152;DHT22;12311;50.866;4.332;2022-11-18T16:23:37;11.10;99.90
24152;DHT22;12311;50.866;4.332;2022-11-18T16:26:03;11.10;99.90
24152;DHT22;12311;50.866;4.332;2022-11-18T16:28:29;11.10;99.90
24152;DHT22;12311;50.866;4.332;2022-11-18T16:30:54;11.20;99.90
24152;DHT22;12311;50.866;4.332;2022-11-18T16:33:38;11.20;99.90
24152;DHT22;12311;50.866;4.332;2022-11-18T16:36:04;11.10;99.90
24152;DHT22;12311;50.866;4.332;2022-11-18T16:38:30;11.10;99.90
24152;DHT22;12311;50.866;4.332;2022-11-18T16:40:56;11.20;99.90
24152;DHT22;12311;50.866;4.332;2022-11-18T16:43:23;11.10;99.90
24152;DHT22;12311;50.866;4.332;2022-11-18T16:45:53;11.10;99.90
24152;DHT22;12311;50.866;4.332;2022-11-18T16:48:19;11.10;99.90
24152;DHT22;12311;50.866;4.332;2022-11-18T16:50:53;11.00;99.90
24152;DHT22;12311;50.866;4.332;2022-11-18T16:53:25;11.00;99.90
24152;DHT22;12311;50.866;4.332;2022-11-18T16:55:51;11.00;99.90
24152;DHT22;12311;50.866;4.332;2022-11-18T16:58:16;11.00;99.90
24152;DHT22;12311;50.866;4.332;2022-11-18T17:00:42;11.00;99.90
24152;DHT22;12311;50.866;4.332;2022-11-18T17:03:07;11.10;99.90
24152;DHT22;12311;50.866;4.332;2022-11-18T17:05:33;11.00;99.90
24152;DHT22;12311;50.866;4.332;2022-11-18T17:07:59;11.10;99.90
24152;DHT22;12311;50.866;4.332;2022-11-18T17:10:25;11.00;99.90
24152;DHT22;12311;50.866;4.332;2022-11-18T17:12:51;11.10;99.90
24152;DHT22;12311;50.866;4.332;2022-11-18T17:15:16;11.10;99.90
24152;DHT22;12311;50.866;4.332;2022-11-18T17:17:42;11.10;99.90
24152;DHT22;12311;50.866;4.332;2022-11-18T17:20:08;11.10;99.90
24152;DHT22;12311;50.866;4.332;2022-11-18T17:22:33;11.10;99.90
24152;DHT22;12311;50.866;4.332;2022-11-18T17:24:59;11.10;99.90
24152;DHT22;12311;50.866;4.332;2022-11-18T17:27:25;10.90;99.90
24152;DHT22;12311;50.866;4.332;2022-11-18T17:29:50;10.90;99.90
24152;DHT22;12311;50.866;4.332;2022-11-18T17:32:16;10.90;99.90
24152;DHT22;12311;50.866;4.332;2022-11-18T17:34:42;10.90;99.90
24152;DHT22;12311;50.866;4.332;2022-11-18T17:37:08;11.10;99.90
24152;DHT22;12311;50.866;4.332;2022-11-18T17:39:34;11.10;99.90
24152;DHT22;12311;50.866;4.332;2022-11-18T17:41:59;11.00;99.90
24152;DHT22;12311;50.866;4.332;2022-11-18T17:44:42;10.90;99.90
24152;DHT22;12311;50.866;4.332;2022-11-18T17:47:08;10.90;99.90
24152;DHT22;12311;50.866;4.332;2022-11-18T17:49:33;10.90;99.90
24152;DHT22;12311;50.866;4.332;2022-11-18T17:51:59;10.80;99.90
24152;DHT22;12311;50.866;4.332;2022-11-18T17:54:25;10.90;99.90
24152;DHT22;12311;50.866;4.332;2022-11-18T17:56:51;10.90;99.90
24152;DHT22;12311;50.866;4.332;2022-11-18T17:59:17;10.90;99.90